Time;durP1;ratioP1;P1;durP2;ratioP2;P2;SDS_P1;SDS_P2;PMS_P1;PMS_P2;Temp;Humidity;BMP_temperature;BMP_pressure;BME280_temperature;BME280_humidity;BME280_pressure;Samples;Min_cycle;Max_cycle;Signal;HPM_P1;HPM_P2
2023/01/06 00:01:06;;;;;;;14.97;8.30;;;;;;;14.65;60.34;99406.47;6923371;28;20212;-77
2023/01/06 00:04:28;;;;;;;15.93;7.93;;;;;;;14.67;60.35;99391.66;6925824;28;20688;-77
2023/01/06 00:07:50;;;;;;;15.50;7.70;;;;;;;15.09;59.39;99390.13;6926161;28;20724;-77
2023/01/06 00:11:14;;;;;;;11.90;7.57;;;;;;;14.83;60.20;99384.88;6923129;28;20677;-77
2023/01/06 00:14:35;;;;;;;10.53;6.67;;;;;;;14.86;59.32;99393.41;6922262;28;20609;-77
2023/01/06 00:17:58;;;;;;;9.57;6.47;;;;;;;13.99;62.76;99391.47;6922733;28;20257;-78
2023/01/06 00:21:20;;;;;;;10.80;6.13;;;;;;;14.73;60.26;99376.34;6921772;28;20261;-77
2023/01/06 00:24:42;;;;;;;10.20;6.10;;;;;;;14.63;60.86;99368.69;6921905;28;20312;-78
2023/01/06 00:28:03;;;;;;;10.00;6.50;;;;;;;14.35;61.36;99370.09;6922844;28;20203;-77
2023/01/06 00:31:25;;;;;;;12.63;6.83;;;;;;;14.73;60.29;99358.19;6922621;28;20296;-77
2023/01/06 00:34:48;;;;;;;11.63;5.93;;;;;;;13.79;63.28;99341.88;6921835;28;20282;-77
2023/01/06 00:38:09;;;;;;;8.50;5.80;;;;;;;14.75;60.86;99371.56;6922449;28;20215;-78
2023/01/06 00:45:10;;;;;;;9.37;6.33;;;;;;;14.52;61.25;99361.22;6921053;28;20232;-78
2023/01/06 00:48:32;;;;;;;14.47;6.77;;;;;;;14.49;60.98;99358.13;6921233;28;20684;-77
2023/01/06 00:51:55;;;;;;;12.30;6.57;;;;;;;14.76;60.58;99356.94;6921700;28;20319;-77
2023/01/06 00:55:16;;;;;;;10.93;5.77;;;;;;;14.76;60.00;99348.78;6921634;28;20650;-78
2023/01/06 00:58:38;;;;;;;9.50;6.60;;;;;;;14.58;59.90;99357.66;6922082;28;20208;-78
2023/01/06 01:01:59;;;;;;;13.77;7.33;;;;;;;14.66;59.87;99365.56;6921284;28;20353;-77
2023/01/06 01:05:21;;;;;;;6.03;4.80;;;;;;;14.77;59.96;99354.00;6920852;28;20643;-77
2023/01/06 01:08:44;;;;;;;4.67;3.70;;;;;;;14.67;60.17;99358.22;6921753;28;20245;-77
2023/01/06 01:12:12;;;;;;;3.17;2.87;;;;;;;14.88;59.25;99358.75;6921453;28;20318;-78
2023/01/06 01:15:34;;;;;;;3.63;2.60;;;;;;;14.90;59.39;99351.22;6920467;28;20225;-78
2023/01/06 01:18:55;;;;;;;2.80;2.57;;;;;;;15.13;58.44;99343.31;6916181;28;20216;-77
2023/01/06 01:22:17;;;;;;;4.77;3.00;;;;;;;15.30;57.74;99346.28;6919837;28;20206;-78
2023/01/06 01:25:40;;;;;;;2.70;2.50;;;;;;;15.19;58.08;99347.84;6920212;28;20222;-78
2023/01/06 01:29:02;;;;;;;3.87;2.90;;;;;;;15.30;57.28;99346.28;6920897;28;20263;-77
2023/01/06 01:32:23;;;;;;;5.10;3.13;;;;;;;15.00;58.05;99331.72;6920916;28;20699;-78
2023/01/06 01:35:44;;;;;;;3.10;2.80;;;;;;;15.19;57.93;99341.56;6919748;28;20314;-77
2023/01/06 01:39:06;;;;;;;3.50;2.93;;;;;;;15.14;57.54;99336.81;6920863;28;20211;-77
2023/01/06 01:42:29;;;;;;;4.70;3.00;;;;;;;15.10;57.82;99341.03;6920909;28;20209;-78
2023/01/06 01:45:53;;;;;;;3.20;2.60;;;;;;;15.01;58.31;99336.06;6920149;28;20588;-78
2023/01/06 01:49:17;;;;;;;2.80;2.60;;;;;;;15.23;56.93;99323.78;6920393;28;20350;-78
2023/01/06 01:52:39;;;;;;;2.50;2.30;;;;;;;15.18;56.79;99334.50;6920341;28;20231;-78
2023/01/06 01:56:02;;;;;;;3.37;2.90;;;;;;;15.16;56.60;99329.25;6918659;28;20225;-78
2023/01/06 01:59:27;;;;;;;3.20;2.90;;;;;;;14.76;57.34;99341.47;6920074;28;20274;-77
2023/01/06 02:02:49;;;;;;;3.67;2.70;;;;;;;14.54;58.14;99332.03;6919939;28;20271;-78
2023/01/06 02:06:13;;;;;;;4.80;3.40;;;;;;;14.49;58.74;99318.28;6919390;28;20251;-78
2023/01/06 02:09:38;;;;;;;3.73;3.00;;;;;;;14.49;58.38;99312.84;6920031;28;20216;-77
2023/01/06 02:13:00;;;;;;;4.30;3.87;;;;;;;14.49;57.80;99323.69;6919546;28;20232;-77
2023/01/06 02:16:30;;;;;;;5.07;4.37;;;;;;;14.24;58.75;99332.78;6919058;28;20591;-78
2023/01/06 02:20:15;;;;;;;5.67;4.07;;;;;;;14.29;58.54;99325.66;6918805;28;20187;-77
2023/01/06 02:24:10;;;;;;;5.50;3.17;;;;;;;14.35;58.67;99321.28;6919876;28;20211;-78
2023/01/06 02:27:49;;;;;;;4.57;3.13;;;;;;;14.12;59.16;99321.78;6894054;28;20835;-77
2023/01/06 02:31:24;;;;;;;4.50;3.30;;;;;;;13.90;59.89;99319.53;6919505;28;20192;-77
2023/01/06 02:34:51;;;;;;;4.77;3.40;;;;;;;14.26;58.51;99317.97;6918944;28;20265;-78
2023/01/06 02:38:25;;;;;;;4.97;3.30;;;;;;;13.42;60.26;99312.78;6919656;28;20192;-77
2023/01/06 02:41:53;;;;;;;3.40;2.77;;;;;;;13.66;60.95;99303.97;6919699;28;20334;-77
2023/01/06 02:45:20;;;;;;;5.67;3.20;;;;;;;14.02;59.94;99312.41;6918780;28;20235;-77
2023/01/06 02:48:49;;;;;;;3.07;2.80;;;;;;;13.99;59.51;99307.44;6918960;28;20211;-78
2023/01/06 02:52:14;;;;;;;3.10;2.90;;;;;;;13.21;61.66;99299.50;6919299;28;20191;-77
2023/01/06 02:55:38;;;;;;;4.67;3.67;;;;;;;13.37;61.44;99301.75;6918441;28;20239;-77
2023/01/06 02:59:03;;;;;;;3.30;3.03;;;;;;;13.19;61.97;99305.13;6918562;28;20275;-77
2023/01/06 03:02:25;;;;;;;3.90;3.53;;;;;;;13.08;62.43;99307.59;6918948;28;20273;-77
2023/01/06 03:05:51;;;;;;;3.47;3.17;;;;;;;13.58;61.34;99293.38;6918370;28;20838;-77
2023/01/06 03:09:14;;;;;;;5.63;3.87;;;;;;;14.07;60.25;99310.72;6919197;28;20198;-78
2023/01/06 03:12:41;;;;;;;4.43;3.87;;;;;;;14.19;59.73;99297.34;6918995;28;20249;-77
2023/01/06 03:16:03;;;;;;;4.63;3.30;;;;;;;14.33;58.75;99309.81;6918043;28;20301;-77
2023/01/06 03:19:25;;;;;;;4.00;3.30;;;;;;;13.87;59.24;99303.72;6895492;28;20357;-78
2023/01/06 03:22:48;;;;;;;4.20;2.87;;;;;;;13.61;60.16;99310.03;6891389;28;20812;-78
2023/01/06 03:26:10;;;;;;;3.57;3.20;;;;;;;13.69;60.41;99295.44;6891345;28;20290;-78
2023/01/06 03:29:31;;;;;;;3.23;2.93;;;;;;;13.99;59.52;99302.81;6891401;28;20350;-78
2023/01/06 03:32:59;;;;;;;3.63;2.90;;;;;;;13.23;61.50;99302.81;6891535;28;20228;-78
2023/01/06 03:36:27;;;;;;;4.03;3.33;;;;;;;13.60;61.08;99296.69;6891216;28;20305;-78
2023/01/06 03:39:57;;;;;;;4.60;2.90;;;;;;;13.20;62.76;99297.81;6891445;28;20637;-77
2023/01/06 03:43:25;;;;;;;3.50;3.10;;;;;;;13.87;60.60;99298.28;6891686;28;20185;-77
2023/01/06 03:46:51;;;;;;;4.20;3.80;;;;;;;14.12;59.79;99307.38;6890930;28;20240;-79
2023/01/06 03:50:18;;;;;;;3.20;2.90;;;;;;;13.64;60.48;99292.53;6891580;28;20243;-78
2023/01/06 03:53:43;;;;;;;3.13;2.83;;;;;;;13.33;61.49;99298.63;6891423;28;20245;-78
2023/01/06 03:57:07;;;;;;;3.43;3.13;;;;;;;13.30;61.38;99260.31;6890657;28;20370;-78
2023/01/06 04:00:30;;;;;;;3.40;2.90;;;;;;;13.58;60.85;99288.78;6890983;28;20204;-78
2023/01/06 04:03:52;;;;;;;3.60;3.27;;;;;;;13.50;60.91;99288.16;6891429;28;20252;-78
2023/01/06 04:07:14;;;;;;;3.97;3.50;;;;;;;13.35;60.97;99284.88;6890149;28;20228;-78
2023/01/06 04:10:35;;;;;;;4.03;3.17;;;;;;;12.94;62.76;99287.81;6891060;28;20573;-78
2023/01/06 04:13:58;;;;;;;3.73;3.00;;;;;;;13.46;60.85;99282.34;6890657;28;20236;-78
2023/01/06 04:17:20;;;;;;;3.03;2.77;;;;;;;13.59;60.04;99287.75;6890738;28;20228;-78
2023/01/06 04:20:41;;;;;;;3.60;3.10;;;;;;;13.43;59.88;99284.66;6895097;28;20208;-78
2023/01/06 04:24:03;;;;;;;3.30;3.00;;;;;;;13.44;59.80;99276.31;6899494;28;20278;-78
2023/01/06 04:27:24;;;;;;;5.93;3.50;;;;;;;12.94;60.33;99285.09;6897407;28;20584;-78
2023/01/06 04:30:47;;;;;;;3.13;2.90;;;;;;;13.06;61.86;99285.34;6906460;28;20286;-78
2023/01/06 04:34:09;;;;;;;4.97;2.90;;;;;;;12.81;62.47;99273.44;6907128;28;20315;-78
2023/01/06 04:37:30;;;;;;;3.37;3.07;;;;;;;12.43;62.89;99275.91;6905629;28;20239;-78
2023/01/06 04:40:52;;;;;;;4.27;3.30;;;;;;;12.99;61.76;99282.63;6902579;28;20300;-78
2023/01/06 04:44:13;;;;;;;5.87;3.30;;;;;;;12.38;63.33;99278.38;6895299;28;20266;-78
2023/01/06 04:47:36;;;;;;;3.60;3.30;;;;;;;13.01;62.00;99266.19;6894744;28;20208;-78
2023/01/06 04:51:01;;;;;;;3.83;3.50;;;;;;;13.23;60.93;99268.44;6895309;28;20664;-78
2023/01/06 04:54:23;;;;;;;4.20;3.03;;;;;;;12.85;61.51;99278.22;6894244;28;20693;-78
2023/01/06 04:57:44;;;;;;;3.43;3.13;;;;;;;12.08;64.27;99277.06;6894984;28;20208;-78
2023/01/06 05:01:07;;;;;;;4.10;3.70;;;;;;;12.80;63.33;99277.19;6894535;28;20498;-78
2023/01/06 05:04:30;;;;;;;4.73;3.10;;;;;;;13.05;60.98;99273.66;6893837;28;20236;-78
2023/01/06 05:07:53;;;;;;;5.20;3.90;;;;;;;12.71;60.90;99273.00;6895600;28;20213;-80
2023/01/06 05:11:16;;;;;;;5.30;3.87;;;;;;;11.90;63.75;99278.66;6895485;28;20272;-80
2023/01/06 05:14:38;;;;;;;5.73;3.57;;;;;;;12.09;63.58;99277.91;6895979;28;20236;-80
2023/01/06 05:17:59;;;;;;;4.13;3.73;;;;;;;12.14;63.01;99273.53;6896462;28;20243;-80
2023/01/06 05:21:23;;;;;;;3.60;3.30;;;;;;;11.45;66.54;99258.47;6897382;28;20295;-80
2023/01/06 05:24:45;;;;;;;3.00;2.80;;;;;;;11.57;67.75;99274.94;6895215;28;20608;-80
2023/01/06 05:28:06;;;;;;;3.33;3.03;;;;;;;12.75;62.95;99274.28;6896009;28;20208;-80
2023/01/06 05:31:28;;;;;;;4.00;3.57;;;;;;;12.55;61.75;99268.84;6916086;28;20215;-80
2023/01/06 05:34:49;;;;;;;4.27;3.10;;;;;;;12.43;61.73;99259.69;6921533;28;20231;-80
2023/01/06 05:38:12;;;;;;;3.83;3.53;;;;;;;12.74;61.35;99268.00;6923004;28;20353;-80
2023/01/06 05:41:33;;;;;;;3.47;3.20;;;;;;;12.78;60.57;99265.72;6923304;28;20740;-80
2023/01/06 05:44:55;;;;;;;3.60;3.30;;;;;;;12.36;60.78;99271.50;6923224;28;20357;-80
2023/01/06 05:48:16;;;;;;;4.20;3.80;;;;;;;12.04;62.39;99270.38;6914322;28;20691;-80
2023/01/06 05:51:38;;;;;;;4.53;3.67;;;;;;;12.19;61.78;99267.50;6895728;28;20701;-80
2023/01/06 05:55:01;;;;;;;3.33;3.03;;;;;;;12.41;60.75;99247.41;6894779;28;20240;-80
2023/01/06 05:58:22;;;;;;;3.00;2.80;;;;;;;12.10;61.54;99239.84;6895055;28;20266;-80
2023/01/06 06:01:43;;;;;;;4.17;3.60;;;;;;;12.55;61.07;99265.28;6895287;28;20212;-80
2023/01/06 06:05:05;;;;;;;3.50;3.10;;;;;;;12.46;61.50;99263.84;6893677;28;20312;-80
2023/01/06 06:08:28;;;;;;;3.47;3.17;;;;;;;12.68;60.53;99268.84;6894485;28;20727;-80
2023/01/06 06:11:53;;;;;;;3.37;3.00;;;;;;;12.30;61.13;99238.03;6893230;28;20212;-80
2023/01/06 06:15:15;;;;;;;3.03;2.60;;;;;;;12.63;60.48;99259.69;6892648;28;20366;-80
2023/01/06 06:18:41;;;;;;;2.70;2.50;;;;;;;12.46;61.22;99263.84;6892993;28;20850;-80
2023/01/06 06:22:03;;;;;;;4.00;2.70;;;;;;;12.15;61.47;99275.19;6891843;28;20196;-80
2023/01/06 06:25:25;;;;;;;4.00;2.67;;;;;;;11.85;64.11;99273.84;6892027;28;20228;-80
2023/01/06 06:28:48;;;;;;;3.27;2.80;;;;;;;12.57;62.22;99266.75;6895732;28;20207;-80
2023/01/06 06:32:09;;;;;;;6.43;2.90;;;;;;;12.65;61.37;99274.69;6919385;28;20272;-80
2023/01/06 06:35:31;;;;;;;4.03;3.03;;;;;;;12.70;61.54;99271.34;6918694;28;20243;-80
2023/01/06 06:38:53;;;;;;;3.50;3.20;;;;;;;12.83;61.17;99279.47;6919233;28;20275;-80
2023/01/06 06:42:14;;;;;;;3.43;3.13;;;;;;;12.58;61.42;99278.41;6918571;28;20329;-80
2023/01/06 06:45:37;;;;;;;3.97;2.97;;;;;;;12.75;61.11;99276.97;6917987;28;20224;-80
2023/01/06 06:48:59;;;;;;;4.33;3.67;;;;;;;12.69;61.00;99277.81;6917209;28;20241;-80
2023/01/06 06:52:20;;;;;;;3.30;3.00;;;;;;;12.49;60.80;99276.94;6918149;28;20369;-80
2023/01/06 06:55:42;;;;;;;3.57;3.27;;;;;;;12.69;60.72;99275.91;6918363;28;20830;-80
2023/01/06 06:59:04;;;;;;;3.27;2.83;;;;;;;12.37;62.18;99274.00;6919116;28;20766;-80
2023/01/06 07:02:27;;;;;;;3.73;3.33;;;;;;;12.48;62.24;99262.59;6919278;28;20368;-80
2023/01/06 07:05:50;;;;;;;3.13;2.93;;;;;;;12.78;62.24;99249.50;6906010;28;20382;-80
2023/01/06 07:09:11;;;;;;;3.27;2.80;;;;;;;13.07;62.46;99277.00;6893555;28;20207;-82
2023/01/06 07:12:33;;;;;;;3.00;2.80;;;;;;;13.17;61.88;99263.84;6893239;28;20266;-81
2023/01/06 07:15:54;;;;;;;3.80;2.80;;;;;;;13.27;61.19;99248.03;6892560;28;20289;-79
2023/01/06 07:19:17;;;;;;;3.00;2.73;;;;;;;13.25;61.37;99276.34;6896466;28;20289;-80
2023/01/06 07:22:39;;;;;;;3.03;2.77;;;;;;;13.10;62.64;99281.19;6899537;28;20270;-80
2023/01/06 07:26:02;;;;;;;4.00;3.00;;;;;;;12.81;64.39;99292.38;6919560;28;20315;-78
2023/01/06 07:29:23;;;;;;;2.60;2.40;;;;;;;12.99;63.25;99293.44;6920149;28;20688;-79
2023/01/06 07:32:45;;;;;;;2.77;2.20;;;;;;;13.78;61.45;99295.00;6920464;28;20207;-79
2023/01/06 07:36:08;;;;;;;3.57;2.80;;;;;;;13.74;60.18;99284.81;6918967;28;20234;-78
2023/01/06 07:39:30;;;;;;;3.60;3.23;;;;;;;13.86;59.96;99288.50;6919362;28;20290;-77
2023/01/06 07:42:51;;;;;;;3.40;3.10;;;;;;;14.15;59.75;99304.25;6919835;28;20841;-78
2023/01/06 07:46:13;;;;;;;4.97;3.90;;;;;;;14.23;59.00;99331.94;6919446;28;20228;-80
2023/01/06 07:49:34;;;;;;;3.80;3.50;;;;;;;14.10;59.27;99318.41;6920025;28;20567;-79
2023/01/06 07:52:58;;;;;;;4.47;3.63;;;;;;;14.22;59.31;99333.00;6921701;28;20257;-81
2023/01/06 07:56:22;;;;;;;8.23;5.43;;;;;;;14.36;58.80;99333.78;6924772;28;20231;-79
2023/01/06 07:59:43;;;;;;;5.63;4.73;;;;;;;14.48;58.52;99343.75;6925309;28;20207;-79
2023/01/06 08:03:07;;;;;;;6.43;5.70;;;;;;;14.30;59.21;99335.50;6922367;28;20846;-79
2023/01/06 08:06:28;;;;;;;8.20;5.90;;;;;;;14.36;59.58;99333.78;6912425;28;20224;-79
2023/01/06 08:09:51;;;;;;;7.03;6.20;;;;;;;14.40;59.31;99351.28;6924729;28;20203;-79
2023/01/06 08:13:13;;;;;;;6.37;5.77;;;;;;;14.26;59.74;99358.66;6924453;28;20207;-79
2023/01/06 08:16:34;;;;;;;5.53;4.80;;;;;;;14.15;60.61;99364.72;6921837;28;20314;-78
2023/01/06 08:19:56;;;;;;;6.37;5.00;;;;;;;14.07;61.02;99353.28;6905073;28;20295;-79
2023/01/06 08:23:17;;;;;;;11.30;5.20;;;;;;;14.12;61.52;99370.59;6917015;28;20222;-79
2023/01/06 08:26:40;;;;;;;7.57;6.00;;;;;;;14.00;62.99;99375.00;6924805;28;20255;-80
2023/01/06 08:30:02;;;;;;;9.97;6.90;;;;;;;14.40;62.00;99378.44;6926313;28;20640;-81
2023/01/06 08:33:24;;;;;;;6.87;5.37;;;;;;;14.19;62.21;99357.00;6925630;28;20282;-80
2023/01/06 08:36:46;;;;;;;9.63;6.20;;;;;;;14.49;61.63;99377.97;6925682;28;20220;-79
2023/01/06 08:40:08;;;;;;;6.00;5.40;;;;;;;13.99;63.35;99376.03;6925716;28;20311;-80
2023/01/06 08:43:31;;;;;;;5.63;5.13;;;;;;;13.86;64.09;99376.06;6925045;28;20216;-80
2023/01/06 08:46:53;;;;;;;5.67;4.93;;;;;;;14.13;63.98;99363.25;6925510;28;20232;-79
2023/01/06 08:50:14;;;;;;;7.40;5.40;;;;;;;14.46;62.82;99358.56;6923476;28;20343;-78
2023/01/06 08:53:36;;;;;;;6.03;5.53;;;;;;;14.64;62.58;99380.41;6922407;28;20208;-78
2023/01/06 08:56:58;;;;;;;8.67;6.43;;;;;;;14.34;63.33;99380.09;6896357;28;20235;-79
2023/01/06 09:00:21;;;;;;;5.20;4.70;;;;;;;14.42;63.66;99392.59;6918428;28;20278;-78
2023/01/06 09:03:42;;;;;;;6.07;4.13;;;;;;;14.63;63.25;99384.97;6923497;28;20848;-79
2023/01/06 09:07:05;;;;;;;4.23;3.77;;;;;;;14.06;64.98;99386.84;6920938;28;20311;-77
2023/01/06 09:10:26;;;;;;;4.67;4.20;;;;;;;14.54;64.18;99394.44;6915204;28;20268;-77
2023/01/06 09:13:49;;;;;;;4.03;2.90;;;;;;;14.49;64.23;99394.25;6912063;28;20209;-77
2023/01/06 09:17:12;;;;;;;3.83;3.37;;;;;;;14.74;63.07;99397.88;6923508;28;20720;-78
2023/01/06 09:20:33;;;;;;;5.20;4.00;;;;;;;14.73;62.80;99401.63;6922654;28;20291;-78
2023/01/06 09:23:55;;;;;;;4.33;3.70;;;;;;;14.45;63.33;99397.63;6922640;28;20263;-76
2023/01/06 09:27:16;;;;;;;3.87;3.47;;;;;;;14.48;63.13;99387.16;6921072;28;20695;-79
2023/01/06 09:30:38;;;;;;;2.23;2.03;;;;;;;14.70;62.58;99395.81;6922123;28;20717;-79
2023/01/06 09:34:01;;;;;;;1.97;1.70;;;;;;;14.86;61.63;99403.47;6921245;28;20227;-78
2023/01/06 09:37:22;;;;;;;1.60;1.50;;;;;;;14.86;61.46;99404.28;6921233;28;20228;-78
2023/01/06 09:40:53;;;;;;;1.90;1.80;;;;;;;15.10;60.24;99411.63;6927503;28;20429;-77
2023/01/06 09:44:17;;;;;;;1.50;1.50;;;;;;;15.34;59.85;99418.19;6916959;28;20197;-77
2023/01/06 09:47:42;;;;;;;5.60;1.70;;;;;;;15.37;58.96;99410.44;6914069;28;20727;-77
2023/01/06 09:51:06;;;;;;;1.40;1.30;;;;;;;15.41;58.61;99394.53;6921200;28;20262;-77
2023/01/06 09:54:31;;;;;;;1.33;1.33;;;;;;;15.55;58.31;99413.22;6919146;28;20290;-77
2023/01/06 09:57:56;;;;;;;1.77;1.50;;;;;;;15.43;58.90;99412.28;6920589;28;20199;-78
2023/01/06 10:01:22;;;;;;;1.50;1.40;;;;;;;15.34;59.23;99412.75;6921330;28;20303;-78
2023/01/06 10:04:44;;;;;;;1.40;1.40;;;;;;;15.32;58.61;99412.97;6912881;28;20308;-77
2023/01/06 10:08:15;;;;;;;1.60;1.50;;;;;;;15.86;57.72;99409.59;6907673;28;21566;-78
2023/01/06 10:11:47;;;;;;;3.10;2.00;;;;;;;15.72;57.41;99410.75;6921284;28;20237;-78
2023/01/06 10:15:15;;;;;;;1.70;1.60;;;;;;;15.56;58.28;99397.72;6919250;28;20285;-77
2023/01/06 10:18:43;;;;;;;1.70;1.60;;;;;;;15.74;57.46;99387.72;6920198;28;20565;-77
2023/01/06 10:22:09;;;;;;;2.17;1.60;;;;;;;15.62;57.91;99359.63;6920692;28;20197;-77
2023/01/06 10:25:34;;;;;;;2.43;1.73;;;;;;;15.79;57.77;99378.91;6919665;28;20233;-77
2023/01/06 10:28:59;;;;;;;1.90;1.80;;;;;;;15.83;58.32;99364.66;6920103;28;20343;-77
2023/01/06 10:32:22;;;;;;;3.40;2.60;;;;;;;15.75;58.01;99343.16;6922378;28;20275;-77
2023/01/06 10:35:43;;;;;;;3.00;2.70;;;;;;;16.31;57.03;99348.38;6919633;28;20777;-77
2023/01/06 10:39:07;;;;;;;2.23;1.90;;;;;;;16.31;56.57;99346.50;6923659;28;20208;-77
2023/01/06 10:46:14;;;;;;;2.07;1.97;;;;;;;17.46;54.00;99321.56;6909951;28;20223;-77
2023/01/06 10:49:36;;;;;;;1.70;1.60;;;;;;;17.22;52.55;99339.75;6904718;28;20703;-78
2023/01/06 10:52:57;;;;;;;1.27;1.20;;;;;;;17.11;53.39;99324.19;6892924;28;20259;-77
2023/01/06 10:56:19;;;;;;;1.33;1.33;;;;;;;16.79;53.36;99321.97;6917956;28;20379;-77
2023/01/06 11:00:11;;;;;;;1.33;1.30;;;;;;;16.50;54.42;99325.53;6902472;28;20214;-77
2023/01/06 11:03:32;;;;;;;1.40;1.30;;;;;;;16.17;55.01;99330.56;6894148;28;20236;-77
2023/01/06 11:06:56;;;;;;;1.90;1.80;;;;;;;16.60;54.53;99332.13;6908219;28;20267;-77
2023/01/06 11:10:26;;;;;;;2.73;2.00;;;;;;;16.69;54.52;99322.56;6918315;28;20299;-78
2023/01/06 11:13:50;;;;;;;1.57;1.47;;;;;;;16.84;53.43;99313.97;6915543;28;20317;-77
2023/01/06 11:17:14;;;;;;;1.50;1.40;;;;;;;16.92;53.71;99314.44;6929251;28;20597;-76
2023/01/06 11:20:36;;;;;;;2.23;2.07;;;;;;;16.94;54.37;99320.53;6921599;28;20271;-81
2023/01/06 11:24:10;;;;;;;2.00;1.90;;;;;;;16.91;54.64;99318.25;6909680;28;20732;-78
2023/01/06 11:27:32;;;;;;;2.00;1.90;;;;;;;16.59;55.96;99313.28;6903436;28;20227;-77
2023/01/06 11:30:55;;;;;;;3.20;2.13;;;;;;;16.48;56.03;99306.75;6925522;28;20241;-76
2023/01/06 11:34:22;;;;;;;2.30;2.10;;;;;;;16.10;57.73;99327.91;6924946;28;20295;-75
2023/01/06 11:37:44;;;;;;;5.00;3.13;;;;;;;16.36;57.15;99313.16;6926195;28;20213;-76
2023/01/06 11:41:08;;;;;;;2.37;2.07;;;;;;;16.79;55.63;99308.38;6925163;28;20300;-76
2023/01/06 11:44:31;;;;;;;2.40;2.20;;;;;;;16.79;55.38;99322.84;6922796;28;20312;-76
2023/01/06 11:47:53;;;;;;;2.10;2.00;;;;;;;16.93;54.98;99298.94;6924537;28;20292;-77
2023/01/06 11:51:16;;;;;;;2.27;2.07;;;;;;;16.79;54.64;99309.22;6925210;28;20301;-78
2023/01/06 11:54:39;;;;;;;2.23;2.03;;;;;;;16.95;54.58;99314.00;6923733;28;20701;-78
2023/01/06 11:58:04;;;;;;;2.63;2.43;;;;;;;16.90;54.60;99296.69;6921873;28;20609;-77
2023/01/06 12:01:32;;;;;;;2.10;1.97;;;;;;;17.05;53.86;99308.78;6902488;28;20304;-77
2023/01/06 12:04:53;;;;;;;2.90;2.20;;;;;;;16.97;53.72;99297.41;6923917;28;20242;-77
2023/01/06 12:08:19;;;;;;;2.20;2.10;;;;;;;16.84;54.36;99281.28;6916210;28;20263;-77
2023/01/06 12:11:45;;;;;;;2.30;2.10;;;;;;;16.78;54.41;99272.16;6897750;28;20767;-76
2023/01/06 12:15:11;;;;;;;3.40;2.10;;;;;;;16.85;54.34;99289.22;6896154;28;20377;-76
2023/01/06 12:18:35;;;;;;;2.10;2.00;;;;;;;16.91;53.80;99266.50;6896449;28;20205;-76
2023/01/06 12:21:57;;;;;;;2.83;2.13;;;;;;;16.64;53.92;99256.25;6896799;28;20214;-77
2023/01/06 12:25:23;;;;;;;1.93;1.83;;;;;;;16.35;54.68;99289.72;6909264;28;20250;-77
2023/01/06 12:28:46;;;;;;;2.00;1.90;;;;;;;16.59;53.92;99284.19;6923123;28;20704;-77
2023/01/06 12:32:10;;;;;;;2.20;2.00;;;;;;;16.41;54.57;99284.25;6921601;28;20260;-76
2023/01/06 12:35:33;;;;;;;2.37;2.17;;;;;;;15.82;56.48;99273.22;6921036;28;20290;-76
2023/01/06 12:38:56;;;;;;;2.37;1.97;;;;;;;15.55;56.48;99249.28;6921450;28;20304;-76
2023/01/06 12:42:23;;;;;;;2.20;2.00;;;;;;;15.19;57.48;99284.53;6911756;28;20202;-77
2023/01/06 12:45:52;;;;;;;2.10;2.00;;;;;;;15.45;57.44;99277.00;6909622;28;20237;-77
2023/01/06 12:49:19;;;;;;;2.00;1.90;;;;;;;16.00;56.86;99277.84;6910594;28;20351;-77
2023/01/06 12:52:43;;;;;;;2.10;2.00;;;;;;;16.53;55.15;99257.88;6906779;28;20312;-77
2023/01/06 12:56:19;;;;;;;1.90;1.80;;;;;;;16.64;54.94;99250.81;6923131;28;20719;-77
2023/01/06 12:59:53;;;;;;;4.07;1.83;;;;;;;16.47;54.59;99250.66;6918612;28;20239;-76
2023/01/06 13:03:34;;;;;;;3.47;2.90;;;;;;;15.78;56.94;99265.75;6906472;28;20222;-76
2023/01/06 13:07:05;;;;;;;4.97;3.27;;;;;;;15.62;58.01;99280.78;6919568;28;20232;-76
2023/01/06 13:10:31;;;;;;;3.10;2.47;;;;;;;15.66;57.95;99283.88;6923084;28;20239;-77
2023/01/06 13:13:59;;;;;;;4.53;4.13;;;;;;;15.22;58.03;99284.91;6923094;28;20284;-77
2023/01/06 13:17:27;;;;;;;3.73;2.50;;;;;;;15.26;57.79;99279.88;6920901;28;20720;-77
2023/01/06 13:20:52;;;;;;;3.00;2.67;;;;;;;15.54;56.94;99272.09;6922775;28;20778;-76
2023/01/06 13:24:25;;;;;;;1.93;1.83;;;;;;;16.12;55.36;99268.69;6921585;28;20206;-76
2023/01/06 13:27:54;;;;;;;2.00;1.90;;;;;;;15.88;55.99;99269.63;6922383;28;20691;-76
2023/01/06 13:31:26;;;;;;;3.10;2.80;;;;;;;16.27;55.00;99262.84;6922590;28;20220;-76
2023/01/06 13:35:08;;;;;;;1.97;1.80;;;;;;;16.31;54.11;99248.53;6921890;28;20226;-77
2023/01/06 13:38:44;;;;;;;4.57;2.30;;;;;;;16.48;53.64;99262.34;6922554;28;20232;-76
2023/01/06 13:42:07;;;;;;;2.40;2.20;;;;;;;16.63;53.79;99270.94;6933632;28;20277;-77
2023/01/06 13:45:31;;;;;;;4.53;4.07;;;;;;;16.38;53.55;99273.78;6931161;28;20244;-77
2023/01/06 13:48:55;;;;;;;3.40;3.10;;;;;;;16.21;53.24;99248.25;6922809;28;20204;-76
2023/01/06 13:52:21;;;;;;;4.03;3.73;;;;;;;16.67;52.95;99280.28;6919218;28;20624;-77
2023/01/06 13:55:43;;;;;;;3.20;3.00;;;;;;;16.74;52.56;99268.22;6920997;28;20272;-76
2023/01/06 13:59:24;;;;;;;2.60;2.40;;;;;;;16.51;53.36;99264.63;6920280;28;20232;-76
2023/01/06 14:03:14;;;;;;;2.63;2.43;;;;;;;16.85;53.58;99281.03;6916982;28;20722;-77
2023/01/06 14:06:46;;;;;;;2.97;2.70;;;;;;;16.76;52.84;99271.53;6921628;28;20723;-76
2023/01/06 14:10:33;;;;;;;4.90;4.50;;;;;;;16.70;53.27;99277.09;6921046;28;20205;-76
2023/01/06 14:13:56;;;;;;;2.30;2.10;;;;;;;16.67;53.14;99274.81;6912578;28;20271;-76
2023/01/06 14:17:29;;;;;;;2.33;2.13;;;;;;;16.76;52.89;99274.25;6917454;28;20274;-77
2023/01/06 14:20:59;;;;;;;2.00;1.90;;;;;;;16.78;53.22;99274.88;6920805;28;20250;-76
2023/01/06 14:24:25;;;;;;;2.30;2.10;;;;;;;16.76;53.07;99289.78;6919568;28;20784;-76
2023/01/06 14:28:08;;;;;;;2.60;2.40;;;;;;;16.56;53.55;99284.63;6921120;28;20806;-77
2023/01/06 14:31:39;;;;;;;4.50;3.00;;;;;;;16.77;53.30;99284.13;6920718;28;20237;-76
2023/01/06 14:35:02;;;;;;;6.13;4.50;;;;;;;16.75;53.47;99282.69;6919817;28;20312;-76
2023/01/06 14:38:27;;;;;;;4.90;4.10;;;;;;;16.58;54.14;99284.41;6920937;28;20737;-76
2023/01/06 14:41:54;;;;;;;4.03;3.63;;;;;;;16.60;54.54;99285.84;6917178;28;20723;-76
2023/01/06 14:45:20;;;;;;;3.60;3.30;;;;;;;16.70;54.15;99263.50;6904152;28;20260;-77
2023/01/06 14:48:47;;;;;;;4.23;3.70;;;;;;;15.63;56.32;99287.06;6920144;28;20209;-78
2023/01/06 14:52:11;;;;;;;4.43;4.03;;;;;;;15.44;57.10;99299.78;6893883;28;20206;-78
2023/01/06 14:55:35;;;;;;;4.20;3.80;;;;;;;15.55;56.26;99292.78;6893347;28;20236;-78
2023/01/06 14:59:11;;;;;;;4.67;3.13;;;;;;;15.34;56.71;99298.66;6912656;28;20666;-78
2023/01/06 15:02:34;;;;;;;3.33;2.90;;;;;;;15.35;56.85;99322.88;6920899;28;20212;-78
2023/01/06 15:06:10;;;;;;;3.37;3.07;;;;;;;15.23;57.45;99312.94;6923283;28;20297;-78
2023/01/06 15:09:32;;;;;;;2.93;2.63;;;;;;;15.40;56.41;99306.72;6933886;28;20199;-78
2023/01/06 15:12:55;;;;;;;3.37;3.07;;;;;;;15.52;55.39;99299.50;6934114;28;20210;-78
2023/01/06 15:16:20;;;;;;;4.93;3.03;;;;;;;15.80;54.84;99318.03;6937749;28;20291;-78
2023/01/06 15:19:44;;;;;;;2.30;2.07;;;;;;;15.72;54.20;99327.31;6911910;28;20746;-78
2023/01/06 15:23:05;;;;;;;3.60;2.60;;;;;;;15.59;54.78;99326.63;6909460;28;20334;-77
2023/01/06 15:26:28;;;;;;;3.23;2.93;;;;;;;15.27;55.55;99327.75;6924450;28;20283;-78
2023/01/06 15:29:51;;;;;;;3.10;2.80;;;;;;;15.90;53.93;99308.28;6914353;28;20296;-78
2023/01/06 15:33:12;;;;;;;5.67;3.80;;;;;;;16.00;53.98;99313.19;6914003;28;20303;-78
2023/01/06 15:36:37;;;;;;;5.33;4.17;;;;;;;15.77;54.51;99326.63;6912568;28;20301;-77
2023/01/06 15:39:59;;;;;;;4.23;3.83;;;;;;;15.76;54.44;99325.78;6920692;28;20265;-77
2023/01/06 15:43:22;;;;;;;4.17;3.53;;;;;;;15.58;55.04;99324.97;6919695;28;20291;-77
2023/01/06 15:46:43;;;;;;;5.20;3.70;;;;;;;15.94;54.20;99330.41;6918482;28;20223;-77
2023/01/06 15:50:07;;;;;;;4.27;3.30;;;;;;;16.00;54.20;99318.63;6919966;28;20299;-77
2023/01/06 15:53:31;;;;;;;4.73;3.83;;;;;;;16.19;54.00;99329.28;6921868;28;20258;-78
2023/01/06 15:56:52;;;;;;;4.60;3.70;;;;;;;16.21;53.86;99329.88;6917611;28;20711;-78
2023/01/06 16:00:20;;;;;;;5.67;4.47;;;;;;;16.22;53.93;99325.28;6918652;28;20208;-79
2023/01/06 16:03:45;;;;;;;5.67;5.17;;;;;;;16.06;54.14;99339.50;6915543;28;20244;-77
2023/01/06 16:07:23;;;;;;;14.53;11.03;;;;;;;16.07;54.45;99335.69;6914410;28;20313;-77